Matanuska — WN4201 — position and weather

sailwx.info

Track history (hours):
 
Tides and Currents Weather Stations Pressure Air Temp Water Temp Dewpoint Dewpoint Depression Visibility Wind Speed Wind Dir Waves Ship Positions

Matanuska

Owner: ALASKA MARINE HIGHWAY SYSTEM DEPARTMENT OF TRANSPORTATION, Anchorage, AK. More information available from US FCC via Universal Licensing System and Coast Guard Vessel Documentation Center.

Last reported at 2017-Sep-19 08:57 UTC. Time now 2017-Sep-19 11:43 UTC.
Position N 54°45' W 130°55'.

Type: Passenger vessel. MMSI: 338195000.

Date/timePositionNaut miles runAvg speedWind from/ knotsBaromVisibWave heightAir tempDewpointWater temp
2017-Sep-19 08:57N 54°45' W 130°55'716.8
2017-Sep-19 08:30N 54°40' W 130°46'816.1
2017-Sep-19 08:00N 54°33' W 130°39'816.6
2017-Sep-19 07:30N 54°25' W 130°36'816.0
2017-Sep-19 07:00N 54°17' W 130°33'815.5
2017-Sep-19 06:30N 54°13' W 130°21'5 4.4
2017-Sep-19 05:26N 54°18' W 130°21'0 0.0
2017-Sep-19 04:50N 54°18' W 130°21'0 0.0
2017-Sep-19 04:29N 54°18' W 130°21'0 0.0
2017-Sep-19 03:59N 54°18' W 130°21'0 0.0
2017-Sep-19 03:26N 54°18' W 130°21'2 3.6
2017-Sep-19 03:01N 54°16' W 130°22'4 7.9
2017-Sep-19 02:30N 54°15' W 130°28'816.3
2017-Sep-19 02:00N 54°22' W 130°36'816.3
2017-Sep-19 01:30N 54°30' W 130°38'816.2
2017-Sep-19 01:00N 54°37' W 130°42'816.2
2017-Sep-19 00:30N 54°43' W 130°52'  
2017-Sep-16 02:25N 54°46' W 130°56'916.2
2017-Sep-16 01:51N 54°39' W 130°45'515.8
2017-Sep-16 01:30N 54°35' W 130°39'815.9
2017-Sep-16 01:00N 54°27' W 130°37'816.2
2017-Sep-16 00:30N 54°19' W 130°35'815.8
2017-Sep-16 00:01N 54°14' W 130°26'4 7.7
2017-Sep-15 23:30N 54°17' W 130°22'1 2.1
2017-Sep-15 23:00N 54°18' W 130°21'0 0.0
2017-Sep-15 22:30N 54°18' W 130°21'0 0.0
2017-Sep-15 21:57N 54°18' W 130°21'0 0.0
2017-Sep-15 21:27N 54°18' W 130°21'0 0.0
2017-Sep-15 21:00N 54°18' W 130°21'0 0.0
2017-Sep-15 20:27N 54°18' W 130°21'0 0.0
2017-Sep-15 20:00N 54°18' W 130°21'0 0.7
2017-Sep-15 19:30N 54°18' W 130°22'5 9.1
2017-Sep-15 19:00N 54°13' W 130°22'815.6
2017-Sep-15 18:30N 54°17' W 130°33'815.5
2017-Sep-15 18:00N 54°25' W 130°37'816.3
2017-Sep-15 17:30N 54°33' W 130°39'815.0
2017-Sep-15 16:59N 54°39' W 130°46'915.7
2017-Sep-15 16:26N 54°45' W 130°56'206 8.4
2017-Sep-14 16:00N 57°48' W 133°48'   230 / 81024.0 5.4 7.8 8.9
Track history (hours):
 
Tides and Currents Weather Stations Pressure Air Temp Water Temp Dewpoint Dewpoint Depression Visibility Wind Speed Wind Dir Waves Ship Positions

Matanuska

Owner: ALASKA MARINE HIGHWAY SYSTEM DEPARTMENT OF TRANSPORTATION, Anchorage, AK. More information available from US FCC via Universal Licensing System and Coast Guard Vessel Documentation Center.

Last reported at 2017-Sep-19 08:57 UTC. Time now 2017-Sep-19 11:43 UTC.
Position N 54°45' W 130°55'.

Type: Passenger vessel. MMSI: 338195000.

Date/timePositionNaut miles runAvg speedWind from/ knotsBaromVisibWave heightAir tempDewpointWater temp
2017-Sep-19 08:57N 54°45' W 130°55'716.8
2017-Sep-19 08:30N 54°40' W 130°46'816.1
2017-Sep-19 08:00N 54°33' W 130°39'816.6
2017-Sep-19 07:30N 54°25' W 130°36'816.0
2017-Sep-19 07:00N 54°17' W 130°33'815.5
2017-Sep-19 06:30N 54°13' W 130°21'5 4.4
2017-Sep-19 05:26N 54°18' W 130°21'0 0.0
2017-Sep-19 04:50N 54°18' W 130°21'0 0.0
2017-Sep-19 04:29N 54°18' W 130°21'0 0.0
2017-Sep-19 03:59N 54°18' W 130°21'0 0.0
2017-Sep-19 03:26N 54°18' W 130°21'2 3.6
2017-Sep-19 03:01N 54°16' W 130°22'4 7.9
2017-Sep-19 02:30N 54°15' W 130°28'816.3
2017-Sep-19 02:00N 54°22' W 130°36'816.3
2017-Sep-19 01:30N 54°30' W 130°38'816.2
2017-Sep-19 01:00N 54°37' W 130°42'816.2
2017-Sep-19 00:30N 54°43' W 130°52'  
2017-Sep-16 02:25N 54°46' W 130°56'916.2
2017-Sep-16 01:51N 54°39' W 130°45'515.8
2017-Sep-16 01:30N 54°35' W 130°39'815.9
2017-Sep-16 01:00N 54°27' W 130°37'816.2
2017-Sep-16 00:30N 54°19' W 130°35'815.8
2017-Sep-16 00:01N 54°14' W 130°26'4 7.7
2017-Sep-15 23:30N 54°17' W 130°22'1 2.1
2017-Sep-15 23:00N 54°18' W 130°21'0 0.0
2017-Sep-15 22:30N 54°18' W 130°21'0 0.0
2017-Sep-15 21:57N 54°18' W 130°21'0 0.0
2017-Sep-15 21:27N 54°18' W 130°21'0 0.0
2017-Sep-15 21:00N 54°18' W 130°21'0 0.0
2017-Sep-15 20:27N 54°18' W 130°21'0 0.0
2017-Sep-15 20:00N 54°18' W 130°21'0 0.7
2017-Sep-15 19:30N 54°18' W 130°22'5 9.1
2017-Sep-15 19:00N 54°13' W 130°22'815.6
2017-Sep-15 18:30N 54°17' W 130°33'815.5
2017-Sep-15 18:00N 54°25' W 130°37'816.3
2017-Sep-15 17:30N 54°33' W 130°39'815.0
2017-Sep-15 16:59N 54°39' W 130°46'915.7
2017-Sep-15 16:26N 54°45' W 130°56'206 8.4
2017-Sep-14 16:00N 57°48' W 133°48'   230 / 81024.0 5.4 7.8 8.9

Dump ship's entire track history